Time;durP1;ratioP1;P1;durP2;ratioP2;P2;SDS_P1;SDS_P2;PMS_P1;PMS_P2;Temp;Humidity;BMP_temperature;BMP_pressure;BME280_temperature;BME280_humidity;BME280_pressure;Samples;Min_cycle;Max_cycle;Signal;HPM_P1;HPM_P2
2022/01/01 00:01:09;;;;;;;4.90;3.13;;;17.10;47.20;;;;;;5097702;28;20246;-50
2022/01/01 00:03:36;;;;;;;6.55;2.90;;;17.10;47.20;;;;;;5097384;28;20160;-50
2022/01/01 00:06:04;;;;;;;5.85;3.15;;;17.00;47.20;;;;;;5063152;28;20178;-49
2022/01/01 00:08:32;;;;;;;6.00;3.30;;;17.10;47.20;;;;;;5097562;28;20643;-49
2022/01/01 00:10:59;;;;;;;4.30;3.00;;;17.10;47.10;;;;;;5097399;28;20175;-49
2022/01/01 00:13:26;;;;;;;4.80;2.33;;;17.10;46.90;;;;;;5097236;28;20167;-49
2022/01/01 00:15:54;;;;;;;3.58;2.13;;;17.10;47.30;;;;;;5097210;28;20229;-49
2022/01/01 00:18:21;;;;;;;3.88;1.92;;;17.00;47.20;;;;;;5096998;28;20489;-49
2022/01/01 00:20:48;;;;;;;5.10;2.05;;;17.00;47.30;;;;;;5079856;28;20190;-49
2022/01/01 00:23:16;;;;;;;6.07;2.65;;;17.00;47.40;;;;;;5097066;28;20500;-49
2022/01/01 00:25:44;;;;;;;2.15;1.65;;;16.90;47.70;;;;;;5097152;28;20259;-49
2022/01/01 00:28:12;;;;;;;3.03;1.85;;;16.90;47.90;;;;;;5096878;28;20180;-49
2022/01/01 00:30:40;;;;;;;4.65;2.92;;;16.90;47.80;;;;;;5096071;28;20239;-49
2022/01/01 00:33:07;;;;;;;2.45;1.83;;;16.90;47.90;;;;;;5096206;28;20162;-49
2022/01/01 00:35:35;;;;;;;3.42;1.70;;;16.90;47.70;;;;;;5079366;28;20160;-49
2022/01/01 00:38:02;;;;;;;4.32;2.78;;;17.00;47.70;;;;;;5079090;28;20254;-49
2022/01/01 00:40:30;;;;;;;2.97;1.50;;;16.90;47.70;;;;;;5096868;28;20593;-49
2022/01/01 00:42:57;;;;;;;2.65;1.80;;;16.80;47.90;;;;;;5095519;28;20652;-48
2022/01/01 00:45:25;;;;;;;5.43;2.53;;;16.90;47.80;;;;;;5095702;28;20666;-49
2022/01/01 00:47:53;;;;;;;4.65;2.30;;;16.90;47.70;;;;;;5095589;28;20192;-49
2022/01/01 00:50:20;;;;;;;2.20;1.40;;;16.80;48.20;;;;;;5096856;28;20169;-49
2022/01/01 00:52:50;;;;;;;5.15;2.97;;;16.80;48.20;;;;;;5096469;28;20647;-49
2022/01/01 00:55:19;;;;;;;3.08;2.05;;;16.70;48.60;;;;;;5096525;28;20211;-49
2022/01/01 00:57:50;;;;;;;3.03;1.83;;;16.70;48.60;;;;;;5095654;28;20250;-49
2022/01/01 01:00:17;;;;;;;2.47;1.33;;;16.60;48.70;;;;;;5096541;28;20171;-49
2022/01/01 01:02:45;;;;;;;2.67;2.25;;;16.70;48.80;;;;;;5096830;28;20198;-49
2022/01/01 01:05:12;;;;;;;3.45;2.35;;;16.70;48.70;;;;;;5096348;28;20195;-49
2022/01/01 01:07:40;;;;;;;3.50;1.75;;;16.70;49.30;;;;;;5095413;28;20205;-49
2022/01/01 01:10:07;;;;;;;2.33;1.38;;;16.70;48.50;;;;;;5078576;28;20160;-49
2022/01/01 01:12:45;;;;;;;3.08;1.80;;;16.80;48.30;;;;;;5096280;28;20156;-49
2022/01/01 01:15:17;;;;;;;4.43;1.83;;;16.70;48.40;;;;;;5079581;28;20619;-49
2022/01/01 01:17:50;;;;;;;2.45;1.88;;;16.70;48.40;;;;;;5095472;28;20517;-49
2022/01/01 01:20:18;;;;;;;5.93;2.28;;;16.70;48.40;;;;;;5095256;28;20164;-49
2022/01/01 01:22:46;;;;;;;4.30;2.70;;;16.80;48.20;;;;;;5096113;28;20174;-49
2022/01/01 01:25:15;;;;;;;4.43;2.42;;;16.90;48.10;;;;;;5094959;28;20258;-49
2022/01/01 01:27:44;;;;;;;3.50;1.90;;;16.80;48.00;;;;;;5094944;28;20196;-49
2022/01/01 01:30:14;;;;;;;2.38;2.17;;;16.80;48.10;;;;;;5094806;28;20176;-49
2022/01/01 01:32:43;;;;;;;2.15;1.30;;;16.70;48.40;;;;;;5095749;28;20160;-49
2022/01/01 01:35:11;;;;;;;3.60;2.53;;;16.70;48.50;;;;;;5094830;28;20191;-50
2022/01/01 01:37:39;;;;;;;2.53;1.60;;;16.60;48.60;;;;;;5095509;28;20535;-49
2022/01/01 01:40:08;;;;;;;4.50;2.10;;;16.70;48.40;;;;;;5095635;28;20172;-49
2022/01/01 01:42:36;;;;;;;2.28;1.75;;;16.80;48.20;;;;;;5095308;28;20314;-48
2022/01/01 01:45:05;;;;;;;2.30;1.58;;;16.80;48.10;;;;;;5095484;28;20175;-49
2022/01/01 01:47:36;;;;;;;3.22;1.83;;;16.70;48.30;;;;;;5061435;28;20591;-49
2022/01/01 01:50:07;;;;;;;2.13;1.92;;;16.70;48.20;;;;;;5094719;28;20236;-49
2022/01/01 01:52:37;;;;;;;3.58;2.00;;;16.80;48.10;;;;;;5078378;28;20176;-48
2022/01/01 01:55:09;;;;;;;4.28;2.10;;;16.90;47.50;;;;;;5094471;28;20198;-49
2022/01/01 01:57:41;;;;;;;4.00;2.13;;;17.00;47.20;;;;;;5095460;28;20224;-49
2022/01/01 02:00:48;;;;;;;3.10;1.65;;;16.90;47.40;;;;;;5095192;28;20157;-49
2022/01/01 02:03:00;;;;;;;4.75;2.67;;;17.00;47.30;;;;;;5095122;28;20213;-49
2022/01/01 02:05:27;;;;;;;3.35;1.60;;;17.00;47.20;;;;;;5094335;28;20557;-49
2022/01/01 02:07:57;;;;;;;2.60;1.30;;;17.00;47.10;;;;;;5094225;28;20270;-49
2022/01/01 02:10:24;;;;;;;4.15;2.15;;;16.90;47.30;;;;;;5094537;28;20172;-49
2022/01/01 02:12:55;;;;;;;3.50;2.15;;;16.90;47.60;;;;;;5094290;28;20156;-49
2022/01/01 02:18:13;;;;;;;8.52;2.80;;;16.70;47.80;;;;;;5093825;28;20171;-49
2022/01/01 02:20:40;;;;;;;4.50;2.70;;;16.80;47.50;;;;;;5076985;28;20662;-49
2022/01/01 02:23:13;;;;;;;2.42;1.67;;;16.90;47.40;;;;;;5077553;28;20168;-49
2022/01/01 02:25:41;;;;;;;4.82;2.78;;;16.90;47.30;;;;;;5094821;28;20240;-49
2022/01/01 02:28:11;;;;;;;3.90;2.10;;;17.00;47.10;;;;;;5093959;28;20811;-49
2022/01/01 02:30:39;;;;;;;3.10;1.42;;;17.00;46.90;;;;;;5094045;28;20300;-49
2022/01/01 02:33:06;;;;;;;2.85;1.95;;;17.00;47.50;;;;;;5093937;28;20167;-49
2022/01/01 02:35:34;;;;;;;3.15;1.60;;;17.10;46.90;;;;;;5077827;28;20164;-49
2022/01/01 02:38:01;;;;;;;2.45;1.48;;;17.00;46.90;;;;;;5094170;28;20164;-49
2022/01/01 02:40:29;;;;;;;2.30;2.10;;;16.90;47.10;;;;;;5094972;28;20172;-49
2022/01/01 02:42:56;;;;;;;2.88;1.33;;;17.00;47.00;;;;;;5093619;28;20779;-49
2022/01/01 02:45:24;;;;;;;3.30;1.95;;;16.80;47.20;;;;;;5094819;28;20176;-49
2022/01/01 02:47:51;;;;;;;2.40;1.35;;;16.80;47.10;;;;;;5094801;28;20237;-49
2022/01/01 02:50:18;;;;;;;3.67;2.00;;;16.90;47.00;;;;;;5093842;28;20167;-49
2022/01/01 02:52:47;;;;;;;7.45;3.08;;;17.00;46.80;;;;;;5094920;28;20222;-49
2022/01/01 02:55:15;;;;;;;2.17;1.60;;;17.10;46.70;;;;;;5093688;28;20196;-49
2022/01/01 02:57:42;;;;;;;3.25;1.85;;;17.00;46.60;;;;;;5094734;28;20164;-49
2022/01/01 03:00:11;;;;;;;3.42;2.30;;;17.10;46.70;;;;;;5093872;28;20165;-49
2022/01/01 03:02:39;;;;;;;3.63;2.35;;;17.10;46.70;;;;;;5094758;28;20250;-49
2022/01/01 03:05:08;;;;;;;3.45;1.95;;;17.10;46.70;;;;;;5094474;28;20268;-49
2022/01/01 03:07:36;;;;;;;3.80;1.75;;;17.10;46.60;;;;;;5094928;28;20188;-49
2022/01/01 03:10:04;;;;;;;2.88;1.65;;;17.00;46.50;;;;;;5094678;28;20189;-49
2022/01/01 03:12:32;;;;;;;3.40;1.92;;;17.00;46.60;;;;;;5081028;28;20609;-49
2022/01/01 03:15:00;;;;;;;3.45;2.30;;;17.00;46.70;;;;;;5098543;28;20222;-49
2022/01/01 03:17:28;;;;;;;3.47;1.92;;;16.90;46.90;;;;;;5098351;28;20163;-49
2022/01/01 03:19:55;;;;;;;3.58;2.17;;;17.00;46.70;;;;;;5098320;28;20267;-49
2022/01/01 03:22:23;;;;;;;2.83;1.90;;;16.90;46.80;;;;;;5098276;28;20164;-49
2022/01/01 03:24:50;;;;;;;3.28;1.77;;;16.80;46.90;;;;;;5098693;28;20176;-50
2022/01/01 03:27:18;;;;;;;2.42;1.80;;;16.80;46.90;;;;;;5098241;28;20187;-49
2022/01/01 03:29:45;;;;;;;3.53;2.20;;;16.80;46.90;;;;;;5098138;28;20164;-49
2022/01/01 03:32:13;;;;;;;2.45;1.80;;;16.80;47.00;;;;;;5098294;28;20164;-49
2022/01/01 03:34:40;;;;;;;2.15;1.55;;;16.80;46.90;;;;;;5097366;28;20688;-49
2022/01/01 03:37:08;;;;;;;3.65;1.77;;;16.80;46.80;;;;;;5097962;28;20239;-49
2022/01/01 03:39:35;;;;;;;4.25;1.70;;;16.80;47.10;;;;;;5097932;28;20646;-49
2022/01/01 03:42:03;;;;;;;2.55;1.52;;;16.80;46.90;;;;;;5097662;28;20591;-49
2022/01/01 03:44:31;;;;;;;2.38;1.08;;;16.80;46.90;;;;;;5097115;28;20179;-49
2022/01/01 03:47:09;;;;;;;1.90;1.23;;;16.80;46.90;;;;;;5097716;28;20501;-48
2022/01/01 03:49:38;;;;;;;2.75;1.45;;;16.80;46.90;;;;;;5097736;28;20615;-49
2022/01/01 03:52:07;;;;;;;3.08;1.70;;;16.80;46.70;;;;;;5096816;28;20168;-49
2022/01/01 03:54:35;;;;;;;2.20;1.40;;;16.80;46.80;;;;;;5097650;28;20300;-48
2022/01/01 03:57:02;;;;;;;3.10;1.83;;;16.80;46.80;;;;;;5096841;28;20605;-49
2022/01/01 03:59:29;;;;;;;3.90;1.40;;;16.90;46.60;;;;;;5097174;28;20498;-49
2022/01/01 04:01:57;;;;;;;3.33;1.70;;;16.90;47.20;;;;;;5079901;28;20645;-49
2022/01/01 04:04:26;;;;;;;1.80;1.23;;;17.00;46.40;;;;;;5097515;28;20164;-49
2022/01/01 04:06:54;;;;;;;3.00;1.65;;;17.00;46.30;;;;;;5079867;28;20247;-50
2022/01/01 04:09:21;;;;;;;2.88;1.63;;;17.00;46.30;;;;;;5097365;28;20298;-49
2022/01/01 04:11:51;;;;;;;2.35;1.20;;;17.00;46.30;;;;;;5096565;28;20176;-50
2022/01/01 04:14:19;;;;;;;2.55;1.58;;;16.90;46.40;;;;;;5096565;28;20171;-49
2022/01/01 04:16:47;;;;;;;3.67;2.17;;;16.90;46.30;;;;;;5079941;28;20171;-49
2022/01/01 04:19:15;;;;;;;2.80;1.63;;;16.80;46.50;;;;;;5063290;28;20191;-49
2022/01/01 04:21:43;;;;;;;3.88;1.27;;;16.90;46.50;;;;;;5097376;28;20179;-49
2022/01/01 04:24:10;;;;;;;2.35;1.70;;;16.80;46.50;;;;;;5096405;28;20577;-49
2022/01/01 04:26:38;;;;;;;3.55;1.58;;;16.80;46.50;;;;;;5097039;28;20176;-48
2022/01/01 04:29:06;;;;;;;2.03;1.33;;;16.80;46.50;;;;;;5096808;28;20187;-49
2022/01/01 04:31:33;;;;;;;1.90;1.13;;;16.70;46.80;;;;;;5096958;28;20163;-49
2022/01/01 04:34:01;;;;;;;2.55;1.25;;;16.70;46.90;;;;;;5096322;28;20233;-49
2022/01/01 04:36:28;;;;;;;5.18;1.38;;;16.80;46.70;;;;;;5096117;28;20156;-49
2022/01/01 04:38:56;;;;;;;3.10;1.83;;;16.80;46.60;;;;;;5096736;28;20186;-49
2022/01/01 04:41:24;;;;;;;2.60;1.30;;;16.70;46.70;;;;;;5096967;28;20196;-49
2022/01/01 04:43:52;;;;;;;2.28;1.40;;;16.80;46.60;;;;;;5096434;28;20216;-49
2022/01/01 04:46:19;;;;;;;3.78;1.60;;;16.70;46.50;;;;;;5095790;28;20172;-49
2022/01/01 04:48:46;;;;;;;2.70;1.52;;;16.70;46.50;;;;;;5095672;28;20208;-49
2022/01/01 04:51:13;;;;;;;2.20;1.33;;;16.80;46.50;;;;;;5096655;28;20178;-49
2022/01/01 04:53:44;;;;;;;3.58;1.35;;;16.80;46.50;;;;;;5095851;28;20164;-48
2022/01/01 04:56:17;;;;;;;2.10;1.50;;;16.70;46.60;;;;;;5079375;28;20175;-49
2022/01/01 04:58:46;;;;;;;2.90;1.35;;;16.70;46.50;;;;;;5095395;28;20271;-49
2022/01/01 05:01:14;;;;;;;2.00;1.30;;;16.80;46.50;;;;;;5095542;28;20562;-49
2022/01/01 05:03:41;;;;;;;2.40;1.45;;;16.80;46.40;;;;;;5096278;28;20251;-49
2022/01/01 05:06:09;;;;;;;2.42;1.40;;;16.80;46.50;;;;;;5096493;28;20581;-49
2022/01/01 05:08:36;;;;;;;3.05;1.90;;;16.80;46.50;;;;;;5096372;28;20597;-49
2022/01/01 05:11:04;;;;;;;3.97;1.70;;;16.80;46.50;;;;;;5095264;28;20277;-49
2022/01/01 05:13:32;;;;;;;3.08;1.63;;;16.80;46.50;;;;;;5078803;28;20152;-50
2022/01/01 05:15:59;;;;;;;2.10;0.98;;;16.80;46.50;;;;;;5095386;28;20157;-49
2022/01/01 05:18:27;;;;;;;1.70;1.13;;;16.70;46.50;;;;;;5095349;28;20172;-50
2022/01/01 05:20:55;;;;;;;3.45;1.80;;;16.80;46.50;;;;;;5095976;28;20168;-49
2022/01/01 05:23:23;;;;;;;2.40;1.23;;;16.80;46.50;;;;;;5095299;28;20218;-49
2022/01/01 05:25:50;;;;;;;3.08;1.45;;;16.80;46.50;;;;;;5095907;28;20176;-49
2022/01/01 05:28:18;;;;;;;2.58;1.50;;;16.70;46.80;;;;;;5095776;28;20192;-49
2022/01/01 05:30:45;;;;;;;2.08;1.55;;;16.60;46.80;;;;;;5095097;28;20506;-49
2022/01/01 05:33:13;;;;;;;1.95;1.38;;;16.60;46.80;;;;;;5095279;28;20255;-49
2022/01/01 05:35:40;;;;;;;1.65;1.10;;;16.70;46.80;;;;;;5095372;28;20229;-49
2022/01/01 05:38:07;;;;;;;3.38;1.40;;;16.70;46.80;;;;;;5095855;28;20553;-49
2022/01/01 05:40:35;;;;;;;2.38;1.70;;;16.70;46.70;;;;;;5095423;28;20175;-49
2022/01/01 05:43:03;;;;;;;1.70;1.15;;;16.60;46.90;;;;;;5095217;28;20645;-48
2022/01/01 05:45:31;;;;;;;2.85;2.05;;;16.60;47.10;;;;;;5095704;28;20195;-49
2022/01/01 05:47:58;;;;;;;1.98;1.10;;;16.60;47.00;;;;;;5095431;28;20634;-49
2022/01/01 05:50:25;;;;;;;2.15;1.30;;;16.60;47.20;;;;;;5095833;28;20359;-49
2022/01/01 05:52:53;;;;;;;1.88;1.27;;;16.60;47.20;;;;;;5095402;28;20230;-49
2022/01/01 05:55:21;;;;;;;5.53;1.40;;;16.50;47.40;;;;;;5077943;28;20218;-49
2022/01/01 05:57:48;;;;;;;1.90;1.15;;;16.50;47.30;;;;;;5095483;28;20247;-49
2022/01/01 06:00:16;;;;;;;2.22;1.13;;;16.60;47.20;;;;;;5095386;28;20559;-49
2022/01/01 06:02:44;;;;;;;1.75;1.23;;;16.60;47.20;;;;;;5095759;28;20164;-49
2022/01/01 06:05:12;;;;;;;1.80;1.40;;;16.70;47.20;;;;;;5094860;28;20172;-49
2022/01/01 06:07:39;;;;;;;4.88;1.52;;;16.60;47.10;;;;;;5094503;28;20245;-49
2022/01/01 06:10:07;;;;;;;2.55;1.42;;;16.60;47.00;;;;;;5095209;28;20163;-48
2022/01/01 06:12:39;;;;;;;2.35;1.90;;;16.60;47.00;;;;;;5095393;28;20597;-49
2022/01/01 06:15:07;;;;;;;2.78;1.02;;;16.70;47.00;;;;;;5095569;28;20152;-49
2022/01/01 06:17:35;;;;;;;2.22;1.25;;;16.70;47.00;;;;;;5094691;28;20175;-48
2022/01/01 06:20:03;;;;;;;1.70;1.00;;;16.60;47.00;;;;;;5095225;28;20233;-49
2022/01/01 06:22:31;;;;;;;2.70;2.08;;;16.60;46.90;;;;;;5077530;28;20292;-49
2022/01/01 06:24:59;;;;;;;4.20;2.17;;;16.60;47.00;;;;;;5094124;28;20160;-49
2022/01/01 06:27:26;;;;;;;4.45;2.03;;;16.60;47.00;;;;;;5094970;28;20187;-49
2022/01/01 06:29:54;;;;;;;2.70;1.52;;;16.60;47.10;;;;;;5095026;28;20218;-49
2022/01/01 06:32:21;;;;;;;1.80;1.40;;;16.60;47.10;;;;;;5094850;28;20175;-48
2022/01/01 06:34:49;;;;;;;1.83;0.90;;;16.60;47.10;;;;;;5095360;28;20161;-49
2022/01/01 06:37:17;;;;;;;2.90;1.30;;;16.60;47.00;;;;;;5094042;28;20160;-49
2022/01/01 06:39:45;;;;;;;4.60;1.45;;;16.70;46.90;;;;;;5093954;28;20171;-49
2022/01/01 06:42:12;;;;;;;3.95;1.40;;;16.70;46.90;;;;;;5077298;28;20232;-49
2022/01/01 06:44:44;;;;;;;2.15;1.45;;;16.70;46.80;;;;;;5094160;28;20164;-49
2022/01/01 06:47:11;;;;;;;1.60;1.10;;;16.80;46.90;;;;;;5080853;28;20207;-48
2022/01/01 06:49:39;;;;;;;5.93;3.50;;;16.70;46.90;;;;;;5098393;28;20161;-49
2022/01/01 06:52:06;;;;;;;4.30;3.80;;;16.60;47.00;;;;;;5098803;28;20590;-49
2022/01/01 06:54:34;;;;;;;7.13;5.28;;;16.60;46.90;;;;;;5098919;28;20160;-49
2022/01/01 06:57:02;;;;;;;6.40;3.45;;;16.60;47.10;;;;;;5099024;28;20160;-49
2022/01/01 06:59:29;;;;;;;4.90;3.00;;;16.60;47.10;;;;;;5098979;28;20172;-49
2022/01/01 07:01:57;;;;;;;2.17;1.23;;;16.60;47.20;;;;;;5097831;28;20226;-49
2022/01/01 07:04:24;;;;;;;3.50;1.05;;;16.60;47.20;;;;;;5097950;28;20168;-49
2022/01/01 07:06:52;;;;;;;1.50;1.00;;;16.60;47.10;;;;;;5097867;28;20165;-49
2022/01/01 07:09:19;;;;;;;1.40;1.00;;;16.60;46.90;;;;;;5064317;28;20256;-49
2022/01/01 07:11:47;;;;;;;1.75;1.02;;;16.70;47.00;;;;;;5098671;28;20160;-49
2022/01/01 07:14:14;;;;;;;1.88;1.10;;;16.70;46.80;;;;;;5098616;28;20485;-49
2022/01/01 07:16:42;;;;;;;1.65;1.13;;;16.70;46.90;;;;;;5098440;28;20152;-49
2022/01/01 07:19:09;;;;;;;3.25;1.50;;;16.70;46.90;;;;;;5097541;28;20247;-50
2022/01/01 07:21:36;;;;;;;1.73;0.80;;;16.70;46.70;;;;;;5098297;28;20171;-49
2022/01/01 07:24:04;;;;;;;1.60;1.02;;;16.80;46.50;;;;;;5098358;28;20516;-50
2022/01/01 07:26:32;;;;;;;3.80;1.48;;;16.70;46.60;;;;;;5098271;28;20217;-50
2022/01/01 07:28:59;;;;;;;1.90;1.00;;;16.80;46.60;;;;;;5098309;28;20195;-49
2022/01/01 07:31:26;;;;;;;2.63;1.25;;;16.80;46.50;;;;;;5098330;28;20278;-49
2022/01/01 07:33:54;;;;;;;2.03;1.20;;;16.70;46.60;;;;;;5098055;28;20240;-49
2022/01/01 07:36:21;;;;;;;2.22;1.10;;;16.80;46.50;;;;;;5098148;28;20241;-49
2022/01/01 07:38:49;;;;;;;3.58;1.38;;;16.80;46.60;;;;;;5098132;28;20210;-49
2022/01/01 07:41:16;;;;;;;1.80;1.13;;;16.80;46.60;;;;;;5097893;28;20194;-49
2022/01/01 07:43:44;;;;;;;1.98;1.27;;;16.80;46.50;;;;;;5096858;28;20303;-49
2022/01/01 07:46:11;;;;;;;1.80;0.80;;;16.90;46.40;;;;;;5096622;28;20195;-49
2022/01/01 07:48:39;;;;;;;2.05;1.23;;;16.90;46.30;;;;;;5096604;28;20206;-49
2022/01/01 07:51:06;;;;;;;2.13;1.30;;;16.90;46.30;;;;;;5095634;28;20221;-49
2022/01/01 07:53:35;;;;;;;1.35;0.63;;;16.80;46.20;;;;;;5095905;28;20269;-49
2022/01/01 07:56:03;;;;;;;4.22;1.13;;;16.80;46.40;;;;;;5096524;28;20166;-49
2022/01/01 07:58:31;;;;;;;2.83;1.10;;;16.80;46.30;;;;;;5095576;28;20168;-49
2022/01/01 08:00:59;;;;;;;1.95;0.80;;;16.80;46.20;;;;;;5095470;28;20160;-49
2022/01/01 08:03:26;;;;;;;2.30;1.30;;;16.90;46.20;;;;;;5095486;28;20199;-49
2022/01/01 08:05:54;;;;;;;1.38;0.88;;;16.90;46.10;;;;;;5096315;28;20251;-49
2022/01/01 08:08:23;;;;;;;1.50;0.95;;;16.80;46.20;;;;;;5096411;28;20271;-49
2022/01/01 08:10:50;;;;;;;1.40;0.65;;;16.90;46.20;;;;;;5096447;28;20156;-49
2022/01/01 08:13:23;;;;;;;7.55;1.15;;;16.90;46.10;;;;;;5078378;28;20168;-49
2022/01/01 08:15:55;;;;;;;1.67;1.10;;;16.80;46.00;;;;;;5096067;28;20688;-49
2022/01/01 08:18:23;;;;;;;1.60;0.90;;;16.70;46.70;;;;;;5095544;28;20175;-49
2022/01/01 08:20:50;;;;;;;1.40;0.85;;;16.70;46.50;;;;;;5095167;28;20209;-49
2022/01/01 08:23:18;;;;;;;1.92;1.25;;;16.80;46.20;;;;;;5095133;28;20164;-48
2022/01/01 08:25:45;;;;;;;2.38;1.48;;;16.90;46.10;;;;;;5096014;28;20474;-49
2022/01/01 08:28:13;;;;;;;1.63;1.00;;;16.90;46.00;;;;;;5095916;28;20191;-49
2022/01/01 08:30:40;;;;;;;2.40;1.20;;;16.90;46.00;;;;;;5095896;28;20152;-49
2022/01/01 08:33:08;;;;;;;1.55;0.75;;;16.80;46.00;;;;;;5096058;28;20632;-49
2022/01/01 08:35:36;;;;;;;1.70;0.80;;;16.80;45.90;;;;;;5096122;28;20647;-49
2022/01/01 08:38:05;;;;;;;1.55;0.85;;;16.90;46.00;;;;;;5095987;28;20187;-49
2022/01/01 08:40:33;;;;;;;1.73;0.93;;;17.00;45.90;;;;;;5094896;28;20168;-49
2022/01/01 08:43:02;;;;;;;1.97;0.83;;;17.00;45.80;;;;;;4998814;28;2730186;-48
2022/01/01 08:45:30;;;;;;;2.72;0.80;;;16.90;45.80;;;;;;5095991;28;20175;-48
2022/01/01 08:47:58;;;;;;;1.42;0.80;;;17.00;45.80;;;;;;5095921;28;20269;-48
2022/01/01 08:50:25;;;;;;;2.03;1.02;;;17.00;45.60;;;;;;5096777;28;20212;-48
2022/01/01 08:52:52;;;;;;;2.10;1.38;;;17.10;45.80;;;;;;5096822;28;20168;-48
2022/01/01 08:55:20;;;;;;;1.73;1.17;;;17.10;45.50;;;;;;5096553;28;20229;-49
2022/01/01 08:57:47;;;;;;;2.30;1.27;;;17.10;45.40;;;;;;5096450;28;20191;-49
2022/01/01 09:00:15;;;;;;;1.50;0.80;;;17.10;45.40;;;;;;5095568;28;20588;-49
2022/01/01 09:02:42;;;;;;;1.63;0.80;;;17.10;45.20;;;;;;5095680;28;20654;-49
2022/01/01 09:05:11;;;;;;;1.73;1.10;;;17.10;45.30;;;;;;5096504;28;20178;-49
2022/01/01 09:07:38;;;;;;;2.28;1.50;;;17.10;46.00;;;;;;5095802;28;20552;-49
2022/01/01 09:10:06;;;;;;;1.33;0.75;;;17.00;45.40;;;;;;5094939;28;20184;-49
2022/01/01 09:12:34;;;;;;;2.60;1.33;;;17.10;46.10;;;;;;5096115;28;20164;-49
2022/01/01 09:15:02;;;;;;;1.80;1.20;;;17.10;45.40;;;;;;5096289;28;20600;-49
2022/01/01 09:17:29;;;;;;;2.20;1.15;;;17.10;45.40;;;;;;5096058;28;20168;-49
2022/01/01 09:19:57;;;;;;;1.75;1.10;;;17.10;45.40;;;;;;5096148;28;20486;-49
2022/01/01 09:22:25;;;;;;;1.90;0.82;;;17.20;45.20;;;;;;5095968;28;20200;-49
2022/01/01 09:24:53;;;;;;;1.27;0.65;;;17.20;45.10;;;;;;5095879;28;20183;-49
2022/01/01 09:27:21;;;;;;;2.10;0.93;;;17.20;45.10;;;;;;5094939;28;20696;-49
2022/01/01 09:29:48;;;;;;;1.77;0.80;;;17.20;44.80;;;;;;5095814;28;20164;-49
2022/01/01 09:32:16;;;;;;;1.95;0.98;;;17.10;44.50;;;;;;5096546;28;20164;-49
2022/01/01 09:34:43;;;;;;;1.50;0.80;;;17.10;45.10;;;;;;5094904;28;20160;-49
2022/01/01 09:37:12;;;;;;;1.90;1.00;;;17.10;45.10;;;;;;5095665;28;20203;-49
2022/01/01 09:39:40;;;;;;;1.73;0.80;;;17.10;45.00;;;;;;5094783;28;20160;-49
2022/01/01 09:42:10;;;;;;;2.60;1.58;;;17.10;44.80;;;;;;5095062;28;20587;-49
2022/01/01 09:44:40;;;;;;;2.28;0.93;;;17.00;45.10;;;;;;5095193;28;20258;-49
2022/01/01 09:47:08;;;;;;;2.00;0.68;;;17.00;44.80;;;;;;5078246;28;20163;-49
2022/01/01 09:49:36;;;;;;;1.80;0.90;;;16.90;45.10;;;;;;5095446;28;20164;-49
2022/01/01 09:52:04;;;;;;;2.40;1.02;;;16.90;45.20;;;;;;5095569;28;20160;-49
2022/01/01 09:54:33;;;;;;;1.60;0.77;;;16.80;45.20;;;;;;5095286;28;20171;-49
2022/01/01 09:57:01;;;;;;;2.30;1.10;;;16.80;45.40;;;;;;5094665;28;20190;-49
2022/01/01 09:59:28;;;;;;;2.40;0.90;;;16.80;45.20;;;;;;5095488;28;20164;-49
2022/01/01 10:01:56;;;;;;;2.60;1.08;;;16.90;45.00;;;;;;5094314;28;20176;-49
2022/01/01 10:04:23;;;;;;;1.50;0.68;;;16.90;45.20;;;;;;5095252;28;20188;-50
2022/01/01 10:07:04;;;;;;;1.48;0.80;;;16.90;44.90;;;;;;5095233;28;20273;-49
2022/01/01 10:09:33;;;;;;;1.42;1.05;;;17.00;45.00;;;;;;5077854;28;20274;-49
2022/01/01 10:12:01;;;;;;;1.73;1.05;;;16.90;44.80;;;;;;5095025;28;20183;-49
2022/01/01 10:14:42;;;;;;;1.85;1.10;;;16.90;45.00;;;;;;5095134;28;20160;-49
2022/01/01 10:17:22;;;;;;;3.20;0.85;;;17.00;45.00;;;;;;5094321;28;20162;-49
2022/01/01 10:19:53;;;;;;;1.40;0.60;;;17.00;44.80;;;;;;5094428;28;20480;-49
2022/01/01 10:22:22;;;;;;;2.38;1.00;;;17.00;44.70;;;;;;5077665;28;20609;-49
2022/01/01 10:28:00;;;;;;;2.35;1.20;;;17.10;44.80;;;;;;5094508;28;20191;-49
2022/01/01 10:30:34;;;;;;;2.30;1.00;;;17.10;44.70;;;;;;5095130;28;20168;-49
2022/01/01 10:33:14;;;;;;;2.75;0.82;;;17.10;44.60;;;;;;5094121;28;20183;-48
2022/01/01 10:36:01;;;;;;;1.55;0.98;;;17.10;44.70;;;;;;5094083;28;20155;-49
2022/01/01 10:38:30;;;;;;;1.52;0.90;;;17.10;44.40;;;;;;5093833;28;20263;-48
2022/01/01 10:41:07;;;;;;;1.60;0.88;;;17.00;44.60;;;;;;5094174;28;20157;-49
2022/01/01 10:43:46;;;;;;;1.70;1.00;;;17.10;44.60;;;;;;5077278;28;20211;-49
2022/01/01 10:46:16;;;;;;;3.72;1.25;;;17.10;44.60;;;;;;5093913;28;20167;-49
2022/01/01 10:49:00;;;;;;;3.60;1.50;;;17.10;44.60;;;;;;5094310;28;20176;-48
2022/01/01 10:51:37;;;;;;;1.52;0.80;;;17.20;44.50;;;;;;5093757;28;20167;-49
2022/01/01 10:54:06;;;;;;;2.30;0.80;;;17.10;44.70;;;;;;5094100;28;20197;-49
2022/01/01 10:56:38;;;;;;;3.50;1.80;;;17.10;44.50;;;;;;5094553;28;20173;-48
2022/01/01 10:59:09;;;;;;;2.55;1.35;;;17.10;44.10;;;;;;5093938;28;20253;-50
2022/01/01 11:01:44;;;;;;;1.67;1.02;;;17.10;44.50;;;;;;5094629;28;20160;-48
2022/01/01 11:04:12;;;;;;;2.00;1.05;;;17.10;44.50;;;;;;5094535;28;20206;-49
2022/01/01 11:06:41;;;;;;;2.40;0.82;;;17.10;44.20;;;;;;5094011;28;20618;-49
2022/01/01 11:09:15;;;;;;;1.40;0.65;;;16.90;44.60;;;;;;5094669;28;20199;-48
2022/01/01 11:11:43;;;;;;;2.38;1.20;;;17.00;44.30;;;;;;5093686;28;20173;-49
2022/01/01 11:14:11;;;;;;;1.85;1.20;;;17.00;44.30;;;;;;5093709;28;20163;-49
2022/01/01 11:16:39;;;;;;;4.80;1.13;;;17.10;44.40;;;;;;5076930;28;20167;-49
2022/01/01 11:19:07;;;;;;;1.55;0.90;;;17.30;44.10;;;;;;5077000;28;20597;-49
2022/01/01 11:21:35;;;;;;;3.75;1.30;;;17.10;43.90;;;;;;5077014;28;20180;-49
2022/01/01 11:24:03;;;;;;;1.92;1.05;;;17.10;44.20;;;;;;5094419;28;20161;-49
2022/01/01 11:26:31;;;;;;;1.80;0.90;;;17.10;44.10;;;;;;5094388;28;20221;-49
2022/01/01 11:29:00;;;;;;;1.58;1.08;;;17.20;44.10;;;;;;5093592;28;20211;-49
2022/01/01 11:31:27;;;;;;;2.40;0.73;;;17.30;43.60;;;;;;5095226;28;20156;-49
2022/01/01 11:34:00;;;;;;;2.00;0.80;;;17.20;44.10;;;;;;5098089;28;20589;-49
2022/01/01 11:36:32;;;;;;;1.83;1.10;;;17.20;43.90;;;;;;5097090;28;20163;-49
2022/01/01 11:39:06;;;;;;;2.10;1.13;;;17.30;43.60;;;;;;5097165;28;20255;-49
2022/01/01 11:41:45;;;;;;;1.98;0.90;;;17.30;43.70;;;;;;5097300;28;20213;-49
2022/01/01 11:44:33;;;;;;;4.35;1.63;;;17.40;43.60;;;;;;5096758;28;20219;-49
2022/01/01 11:47:04;;;;;;;3.70;0.98;;;17.30;43.20;;;;;;5096857;28;20172;-49
2022/01/01 11:49:34;;;;;;;1.85;1.05;;;17.30;43.40;;;;;;5097843;28;20268;-49
2022/01/01 11:52:03;;;;;;;9.57;1.65;;;17.30;43.10;;;;;;5096909;28;20258;-49
2022/01/01 11:54:35;;;;;;;1.30;0.80;;;17.30;43.20;;;;;;5096866;28;20164;-49
2022/01/01 11:57:35;;;;;;;1.85;1.00;;;17.30;43.20;;;;;;5096990;28;20638;-49
2022/01/01 12:00:13;;;;;;;3.45;1.40;;;17.30;43.30;;;;;;5097004;28;20156;-49
2022/01/01 12:02:44;;;;;;;2.65;1.52;;;17.30;43.10;;;;;;5080415;28;20160;-49
2022/01/01 12:05:14;;;;;;;2.28;0.90;;;17.40;43.10;;;;;;5097732;28;20153;-49
2022/01/01 12:07:53;;;;;;;1.50;0.90;;;17.30;43.00;;;;;;5097422;28;20195;-49
2022/01/01 12:10:27;;;;;;;2.67;0.75;;;17.30;43.20;;;;;;5097529;28;20156;-49
2022/01/01 12:13:01;;;;;;;2.35;1.20;;;17.30;42.80;;;;;;5097835;28;20168;-49
2022/01/01 12:15:51;;;;;;;2.20;1.30;;;17.30;42.80;;;;;;5096885;28;20174;-49
2022/01/01 12:18:21;;;;;;;3.38;1.10;;;17.30;43.40;;;;;;5080236;28;20182;-49
2022/01/01 12:20:57;;;;;;;3.65;0.95;;;17.30;43.30;;;;;;5097320;28;20543;-48
2022/01/01 12:23:29;;;;;;;1.92;1.08;;;17.30;42.80;;;;;;5096259;28;20212;-49
2022/01/01 12:25:58;;;;;;;1.80;1.05;;;17.30;43.40;;;;;;5096696;28;20589;-49
2022/01/01 12:28:36;;;;;;;1.90;1.33;;;17.20;42.50;;;;;;5096914;28;20320;-49
2022/01/01 12:31:10;;;;;;;2.47;1.50;;;17.10;43.30;;;;;;5096025;28;20237;-49
2022/01/01 12:33:42;;;;;;;2.42;1.38;;;17.20;43.30;;;;;;5096149;28;20171;-49
2022/01/01 12:36:12;;;;;;;2.13;1.35;;;17.10;43.10;;;;;;5079122;28;20343;-49
2022/01/01 12:38:40;;;;;;;2.30;1.25;;;17.10;43.20;;;;;;5096016;28;20611;-49
2022/01/01 12:41:14;;;;;;;1.92;0.90;;;17.10;43.20;;;;;;5095979;28;20493;-49
2022/01/01 12:43:48;;;;;;;5.60;1.08;;;17.10;43.20;;;;;;5095502;28;20215;-50
2022/01/01 12:46:18;;;;;;;2.67;1.20;;;17.10;43.20;;;;;;5096720;28;20168;-49
2022/01/01 12:48:46;;;;;;;5.30;1.13;;;17.10;43.10;;;;;;5096702;28;20180;-49
2022/01/01 12:51:19;;;;;;;2.83;1.25;;;17.10;43.40;;;;;;5096596;28;20244;-49
2022/01/01 12:53:52;;;;;;;2.78;1.73;;;17.20;43.20;;;;;;5095566;28;20522;-49
2022/01/01 12:56:21;;;;;;;1.90;1.20;;;17.10;43.20;;;;;;5095455;28;20625;-49
2022/01/01 12:58:51;;;;;;;6.95;1.55;;;17.20;43.20;;;;;;5095831;28;20588;-49
2022/01/01 13:01:31;;;;;;;7.53;2.00;;;17.20;43.20;;;;;;5079111;28;20502;-49
2022/01/01 13:04:05;;;;;;;2.13;1.02;;;17.20;43.20;;;;;;5080338;28;20585;-49